Latest Weather Observations for Ballina

IDN60801

Issued at 6:02 am EST Friday 26 April 2019 (issued every 10 minutes, with the page automatically refreshed every 10 minutes)

About weather observations | Map of weather stations | Latest weather observations for NSW | Other Formats
Station Details ID: 058198 Name: BALLINA AIRPORT AWS Lat: -28.84 Lon: 153.56 Height: 1.3 m
Data from the previous 72 hours. | See also: Recent months at Ballina
Date/Time
EST
Temp
°C
App
Temp
°C
Dew
Point
°C
Rel
Hum
%
Delta-T
°C
Wind Press
QNH
hPa
Press
MSL
hPa
Rain since
9am
mm
Dir  Spd
km/h
Gust
km/h
Spd
kts
Gust
kts
26/06:00am 14.4 15.7 14.1 98 0.2 CALM 0 0 0 0 1017.6 1017.6 0.2
26/05:50am 15.0 16.6 15.0 100 0.0 CALM 0 0 0 0 1017.7 1017.7 0.2
26/05:42am 15.2 16.9 15.2 100 0.0 CALM 0 0 0 0 1017.6 1017.6 0.2
26/05:30am 15.0 16.6 15.0 100 0.0 CALM 0 0 0 0 1017.5 1017.5 0.2
26/05:23am 14.9 16.5 14.9 100 0.0 CALM 0 0 0 0 1017.5 1017.5 0.2
26/05:00am 15.2 16.9 15.2 100 0.0 CALM 0 0 0 0 1017.7 1017.7 0.2
26/04:48am 15.1 - - - - CALM 0 0 0 0 1017.7 1017.7 0.2
26/04:30am 14.9 16.5 14.8 99 0.1 CALM 0 0 0 0 1017.5 1017.5 0.2
26/04:22am 14.9 16.5 14.9 100 0.0 CALM 0 0 0 0 1017.5 1017.5 0.2
26/04:18am 14.9 16.5 14.9 100 0.0 CALM 0 0 0 0 1017.4 1017.4 0.2
26/04:00am 15.2 16.9 15.2 100 0.0 CALM 0 0 0 0 1017.8 1017.8 0.2
26/03:51am 15.0 16.6 15.0 100 0.0 CALM 0 0 0 0 1017.6 1017.6 0.2
26/03:38am 15.8 17.7 15.8 100 0.0 CALM 0 0 0 0 1017.6 1017.6 0.2
26/03:30am 15.5 17.3 15.5 100 0.0 CALM 0 0 0 0 1017.7 1017.7 0.2
26/03:28am 15.6 17.4 15.6 100 0.0 CALM 0 0 0 0 1017.7 1017.7 0.2
26/03:00am 15.8 17.7 15.8 100 0.0 CALM 0 0 0 0 1017.8 1017.8 0.2
26/02:30am 15.9 17.9 15.9 100 0.0 CALM 0 0 0 0 1018.0 1018.0 0.2
26/02:00am 16.0 18.0 16.0 100 0.0 CALM 0 0 0 0 1018.3 1018.3 0.2
26/01:54am 15.7 17.6 15.7 100 0.0 CALM 0 0 0 0 1018.4 1018.4 0.2
26/01:30am 16.2 18.3 16.2 100 0.0 CALM 0 0 0 0 1018.8 1018.8 0.2
26/01:00am 15.8 17.7 15.8 100 0.0 CALM 0 0 0 0 1019.0 1019.0 0.2
26/12:57am 15.8 17.7 15.8 100 0.0 CALM 0 0 0 0 1018.9 1018.9 0.2
26/12:30am 16.3 18.4 16.3 100 0.0 CALM 0 0 0 0 1019.0 1019.0 0.2
26/12:00am 16.6 - - - - CALM 0 0 0 0 1019.1 1019.1 0.2
 
Date/Time
EST
Temp
°C
App
Temp
°C
Dew
Point
°C
Rel
Hum
%
Delta-T
°C
Wind Press
QNH
hPa
Press
MSL
hPa
Rain since
9am
mm
Dir  Spd
km/h
Gust
km/h
Spd
kts
Gust
kts
25/11:30pm 16.9 - - - - CALM 0 0 0 0 1019.2 1019.2 0.2
25/11:00pm 16.8 - - - - CALM 0 0 0 0 1019.4 1019.4 0.2
25/10:55pm 16.9 - - - - CALM 0 0 0 0 1019.4 1019.4 0.2
25/10:36pm 17.3 - - - - CALM 0 0 0 0 1019.6 1019.6 0.2
25/10:32pm 17.3 - - - - CALM 0 0 0 0 1019.6 1019.6 0.2
25/10:30pm 17.3 - - - - CALM 0 0 0 0 1019.6 1019.6 0.2
25/10:08pm 17.5 - - - - CALM 0 0 0 0 1019.7 1019.7 0.2
25/10:00pm 17.8 - - - - CALM 0 0 0 0 1019.7 1019.7 0.2
25/09:30pm 18.0 - - - - CALM 0 0 0 0 1019.9 1019.9 0.2
25/09:00pm 18.2 - - - - CALM 0 0 0 0 1020.0 1020.0 0.2
25/08:30pm 18.4 21.4 18.4 100 0.0 CALM 0 0 0 0 1019.9 1019.9 0.2
25/08:00pm 19.0 - - - - CALM 0 0 0 0 1019.8 1019.8 0.2
25/07:30pm 19.1 - - - - CALM 0 0 0 0 1019.6 1019.6 0.2
25/07:00pm 20.1 23.7 19.8 98 0.2 CALM 0 0 0 0 1019.5 1019.5 0.2
25/06:30pm 20.1 23.7 19.8 98 0.2 CALM 0 0 0 0 1019.3 1019.3 0.2
25/06:00pm 21.1 24.3 18.9 87 1.4 CALM 0 0 0 0 1019.1 1019.1 0.2
25/05:30pm 22.0 25.4 19.4 85 1.7 CALM 0 4 0 2 1018.8 1018.8 0.2
25/05:00pm 22.4 25.9 19.6 84 1.8 CALM 0 0 0 0 1018.7 1018.7 0.2
25/04:30pm 22.7 25.2 19.9 84 1.8 E 6 7 3 4 1018.5 1018.5 0.2
25/04:00pm 23.0 24.7 19.4 80 2.3 E 9 11 5 6 1018.3 1018.3 0.2
25/03:30pm 23.3 25.5 19.7 80 2.3 E 7 11 4 6 1018.5 1018.5 0.2
25/03:00pm 23.1 24.0 18.4 75 2.9 E 11 13 6 7 1018.3 1018.3 0.2
25/02:30pm 23.5 24.9 19.6 79 2.5 SE 11 17 6 9 1018.5 1018.5 0.2
25/02:00pm 23.7 25.3 20.0 80 2.4 SSE 11 15 6 8 1018.6 1018.6 0.2
25/01:30pm 23.2 24.3 18.9 77 2.7 S 11 17 6 9 1018.9 1018.9 0.2
25/01:00pm 23.1 23.3 19.3 79 2.4 SSE 17 20 9 11 1019.0 1019.0 0.2
25/12:30pm 23.5 24.3 20.6 84 1.9 SSE 17 22 9 12 1019.5 1019.5 0.2
25/12:00pm 22.7 22.8 19.1 80 2.3 SSE 17 20 9 11 1020.0 1020.0 0.2
25/11:30am 23.1 24.7 20.8 87 1.5 SE 13 19 7 10 1020.4 1020.4 0.2
25/11:00am 23.1 26.1 20.1 83 1.9 WNW 4 9 2 5 1021.0 1021.0 0.2
25/10:30am 22.9 26.1 20.4 86 1.6 WSW 4 9 2 5 1021.2 1021.2 0.0
25/10:00am 21.8 25.7 21.8 100 0.0 NNW 4 7 2 4 1021.3 1021.3 0.0
25/09:30am 20.4 22.1 19.4 94 0.6 W 9 13 5 7 1021.4 1021.4 0.0
25/09:00am 20.1 21.7 19.1 94 0.6 WNW 9 13 5 7 1021.5 1021.5 2.2
25/08:30am 19.1 19.8 18.8 98 0.2 W 13 15 7 8 1021.6 1021.6 2.2
25/08:00am 18.6 19.7 18.1 97 0.3 W 9 13 5 7 1021.8 1021.8 2.2
25/07:30am 18.6 19.5 18.4 99 0.1 W 11 15 6 8 1021.3 1021.3 2.2
25/07:00am 18.5 21.0 18.2 98 0.2 SSW 2 9 1 5 1021.2 1021.2 2.2
25/06:30am 18.2 20.3 18.0 99 0.1 SSW 4 11 2 6 1021.1 1021.1 2.2
25/06:00am 18.1 19.1 17.8 98 0.2 SW 9 11 5 6 1021.0 1021.0 2.2
25/05:30am 18.0 20.0 17.8 99 0.1 W 4 13 2 7 1021.0 1021.0 2.2
25/05:00am 18.1 19.2 17.9 99 0.1 W 9 11 5 6 1020.7 1020.7 2.2
25/04:30am 18.0 18.6 17.8 99 0.1 WNW 11 15 6 8 1020.7 1020.7 2.2
25/04:00am 18.0 19.1 18.0 100 0.0 WNW 9 13 5 7 1020.8 1020.8 2.2
25/03:30am 18.2 18.6 18.2 100 0.0 SW 13 15 7 8 1020.6 1020.6 2.2
25/03:11am 18.2 18.6 18.2 100 0.0 SW 13 17 7 9 1020.6 1020.6 2.2
25/03:00am 18.2 18.6 18.2 100 0.0 SW 13 15 7 8 1020.7 1020.7 2.2
25/02:35am 18.1 18.9 18.1 100 0.0 SW 11 15 6 8 1020.8 1020.8 1.6
25/02:30am 18.1 18.9 18.1 100 0.0 SW 11 15 6 8 1020.9 1020.9 1.6
25/02:15am 18.2 17.8 18.0 99 0.1 SW 17 22 9 12 1020.9 1020.9 1.4
25/02:14am 18.2 17.8 18.0 99 0.1 SW 17 22 9 12 1020.9 1020.9 1.4
25/02:00am 18.5 18.5 18.2 98 0.2 SW 15 20 8 11 1020.9 1020.9 1.0
25/01:30am 18.6 20.0 18.6 100 0.0 S 9 11 5 6 1021.1 1021.1 1.0
25/01:00am 16.6 18.8 16.6 100 0.0 CALM 0 0 0 0 1021.3 1021.3 1.0
25/12:30am 16.1 18.1 16.1 100 0.0 CALM 0 0 0 0 1021.3 1021.3 1.0
25/12:00am 16.3 18.2 15.7 96 0.3 CALM 0 0 0 0 1021.6 1021.6 1.0
 
Date/Time
EST
Temp
°C
App
Temp
°C
Dew
Point
°C
Rel
Hum
%
Delta-T
°C
Wind Press
QNH
hPa
Press
MSL
hPa
Rain since
9am
mm
Dir  Spd
km/h
Gust
km/h
Spd
kts
Gust
kts
24/11:30pm 16.6 16.8 15.8 95 0.5 W 9 13 5 7 1021.8 1021.8 1.0
24/11:00pm 17.4 19.8 17.1 98 0.2 CALM 0 0 0 0 1021.9 1021.9 1.0
24/10:30pm 17.5 20.0 17.2 98 0.2 CALM 0 0 0 0 1022.1 1022.1 1.0
24/10:00pm 17.2 19.6 17.0 99 0.1 CALM 0 0 0 0 1022.2 1022.2 1.0
24/09:30pm 17.2 19.5 16.7 97 0.3 CALM 0 0 0 0 1022.2 1022.2 1.0
24/09:00pm 17.1 19.4 16.8 98 0.2 CALM 0 0 0 0 1022.3 1022.3 1.0
24/08:30pm 17.3 19.8 17.3 100 0.0 CALM 0 0 0 0 1022.4 1022.4 1.0
24/08:00pm 17.5 19.9 17.0 97 0.3 CALM 0 0 0 0 1022.5 1022.5 1.0
24/07:30pm 18.1 20.3 17.5 96 0.4 SSE 2 13 1 7 1022.5 1022.5 1.0
24/07:00pm 18.8 21.8 18.5 98 0.2 CALM 0 0 0 0 1022.1 1022.1 1.0
24/06:30pm 19.1 21.6 17.2 89 1.2 CALM 0 0 0 0 1022.0 1022.0 1.0
24/06:00pm 19.8 22.6 17.9 89 1.2 CALM 0 0 0 0 1021.9 1021.9 1.0
24/05:30pm 20.9 22.4 17.5 81 2.1 ESE 6 7 3 4 1021.7 1021.7 1.0
24/05:00pm 22.1 23.3 16.8 72 3.2 E 6 9 3 5 1021.6 1021.6 1.0
24/04:30pm 23.2 23.4 17.7 71 3.4 ESE 13 20 7 11 1021.3 1021.3 1.0
24/04:00pm 23.6 24.2 17.6 69 3.7 ESE 11 15 6 8 1021.4 1021.4 1.0
24/03:30pm 23.4 23.4 17.2 68 3.8 E 13 17 7 9 1021.4 1021.4 1.0
24/03:00pm 22.8 23.1 17.0 70 3.6 ESE 11 15 6 8 1021.4 1021.4 1.0
24/02:30pm 23.7 23.5 17.7 69 3.7 E 15 22 8 12 1021.3 1021.3 1.0
24/02:00pm 23.5 23.5 17.3 68 3.8 E 13 20 7 11 1021.3 1021.3 1.0
24/01:30pm 24.3 23.9 17.1 64 4.5 ESE 15 22 8 12 1021.3 1021.3 1.0
24/01:00pm 23.4 22.6 16.0 63 4.5 SE 15 19 8 10 1021.7 1021.7 1.0
24/12:30pm 23.5 23.2 16.5 65 4.3 ESE 13 22 7 12 1022.2 1022.2 1.0
24/12:00pm 24.2 25.5 19.3 74 3.1 SE 11 20 6 11 1022.4 1022.4 1.0
24/11:30am 23.3 23.6 18.8 76 2.8 SSE 15 19 8 10 1022.9 1022.9 1.0
24/11:00am 23.0 24.4 19.6 81 2.2 SSW 11 17 6 9 1023.4 1023.4 0.8
24/10:30am 22.7 24.5 20.4 87 1.5 W 11 17 6 9 1023.6 1023.6 0.8
24/10:00am 22.1 23.7 20.0 88 1.3 WSW 11 15 6 8 1024.0 1024.0 0.8
24/09:38am 21.0 21.9 19.3 90 1.1 SW 13 17 7 9 1023.8 1023.8 0.8
24/09:30am 20.9 21.6 19.6 92 0.8 WSW 15 20 8 11 1023.8 1023.8 0.8
24/09:19am 21.2 23.2 18.8 86 1.5 SW 6 15 3 8 1023.9 1023.9 0.8
24/09:00am 22.1 25.0 19.8 87 1.5 SE 4 13 2 7 1023.7 1023.7 2.6
24/08:39am 20.6 23.1 19.8 95 0.5 ESE 6 9 3 5 1023.8 1023.8 2.6
24/08:30am 20.3 21.5 19.0 92 0.8 ESE 11 17 6 9 1023.7 1023.7 2.6
24/08:25am 20.3 20.7 19.0 92 0.8 ESE 15 26 8 14 1023.8 1023.8 2.4
24/08:00am 20.3 22.8 19.1 93 0.8 WNW 4 7 2 4 1023.8 1023.8 2.2
24/07:30am 19.2 21.0 18.7 97 0.3 W 7 9 4 5 1023.6 1023.6 2.2
24/07:00am 18.6 20.3 18.4 99 0.1 W 7 11 4 6 1023.4 1023.4 2.2
24/06:30am 18.3 19.9 18.3 100 0.0 W 7 9 4 5 1023.0 1023.0 2.2
24/06:00am 18.5 19.8 18.5 100 0.0 W 9 9 5 5 1022.7 1022.7 2.2
24/05:30am 19.4 20.9 17.7 90 1.0 W 6 7 3 4 1022.5 1022.5 2.2
24/05:00am 20.3 21.7 17.7 85 1.6 ESE 7 13 4 7 1022.2 1022.2 2.2
24/04:30am 20.0 22.3 17.8 87 1.4 ESE 2 7 1 4 1022.0 1022.0 2.2
24/04:14am 20.2 20.8 17.8 86 1.5 ENE 11 17 6 9 1021.9 1021.9 2.2
24/04:00am 20.6 20.0 17.6 83 1.8 E 17 32 9 17 1021.7 1021.7 2.2
24/03:55am 20.6 20.3 17.4 82 2.0 E 15 32 8 17 1021.9 1021.9 2.0
24/03:30am 21.3 21.7 18.9 86 1.5 E 15 22 8 12 1021.7 1021.7 0.4
24/03:00am 18.6 20.6 17.8 95 0.5 S 4 7 2 4 1022.0 1022.0 0.4
24/02:30am 19.1 21.8 17.8 92 0.8 CALM 0 0 0 0 1022.3 1022.3 0.4
24/02:00am 19.5 20.7 18.2 92 0.8 S 9 15 5 8 1022.6 1022.6 0.4
24/01:30am 18.5 21.1 18.3 99 0.1 E 2 7 1 4 1022.9 1022.9 0.4
24/01:00am 20.5 20.7 16.7 79 2.3 ESE 11 15 6 8 1023.2 1023.2 0.4
24/12:30am 20.9 20.7 16.7 77 2.5 ESE 13 19 7 10 1023.2 1023.2 0.4
24/12:00am 20.8 21.5 17.0 79 2.3 ESE 9 13 5 7 1023.7 1023.7 0.4
 
Date/Time
EST
Temp
°C
App
Temp
°C
Dew
Point
°C
Rel
Hum
%
Delta-T
°C
Wind Press
QNH
hPa
Press
MSL
hPa
Rain since
9am
mm
Dir  Spd
km/h
Gust
km/h
Spd
kts
Gust
kts
23/11:30pm 21.2 21.5 17.0 77 2.6 E 11 15 6 8 1023.9 1023.9 0.4
23/11:00pm 21.3 21.2 16.9 76 2.7 E 13 22 7 12 1023.9 1023.9 0.4
23/10:30pm 21.4 20.9 17.0 76 2.7 E 15 20 8 11 1024.2 1024.2 0.4
23/10:00pm 21.6 20.8 17.0 75 2.8 E 17 26 9 14 1024.4 1024.4 0.4
23/09:30pm 20.9 22.7 19.6 92 0.8 S 9 13 5 7 1024.7 1024.7 0.4
23/09:00pm 20.7 22.0 19.2 91 0.9 S 11 15 6 8 1024.6 1024.6 0.4
23/08:30pm 20.5 21.7 19.8 96 0.4 SSE 13 17 7 9 1024.4 1024.4 0.4
23/08:00pm 21.0 21.3 19.5 91 0.9 SE 17 26 9 14 1024.6 1024.6 0.4
23/07:30pm 21.1 22.4 20.1 94 0.6 ESE 13 24 7 13 1024.5 1024.5 0.4
23/07:00pm 21.0 22.2 20.0 94 0.6 SE 13 17 7 9 1023.8 1023.8 0.4
23/06:30pm 20.7 21.4 19.7 94 0.6 ESE 15 24 8 13 1023.7 1023.7 0.2
23/06:00pm 21.5 23.0 17.5 78 2.5 ESE 6 7 3 4 1023.5 1023.5 0.0
23/05:30pm 21.6 23.2 17.8 79 2.4 SE 6 9 3 5 1023.1 1023.1 0.0
23/05:00pm 22.3 23.2 18.5 79 2.4 ESE 11 15 6 8 1022.9 1022.9 0.0
23/04:30pm 22.9 23.9 18.7 77 2.6 ESE 11 13 6 7 1022.7 1022.7 0.0
23/04:00pm 23.3 24.0 17.1 68 3.8 ESE 9 13 5 7 1022.8 1022.8 0.0
23/03:30pm 23.6 23.9 16.9 66 4.1 E 11 17 6 9 1022.7 1022.7 0.0
23/03:00pm 24.1 23.7 17.1 65 4.3 E 15 22 8 12 1022.7 1022.7 0.0
23/02:30pm 24.3 22.9 16.6 62 4.7 ENE 19 24 10 13 1022.8 1022.8 0.0
23/02:00pm 24.1 23.3 17.1 65 4.3 E 17 24 9 13 1022.9 1022.9 0.0
23/01:30pm 24.7 24.0 17.4 64 4.5 E 17 33 9 18 1023.0 1023.0 0.0
23/01:00pm 24.8 24.1 17.3 63 4.6 ESE 17 28 9 15 1023.1 1023.1 0.0
23/12:30pm 25.4 24.4 17.6 62 4.9 E 19 26 10 14 1023.3 1023.3 0.0
23/12:00pm 24.9 23.5 16.9 61 4.9 E 20 28 11 15 1023.8 1023.8 0.0
23/11:30am 24.7 23.1 16.4 60 5.1 E 20 28 11 15 1024.2 1024.2 0.0
23/11:00am 25.4 24.5 18.1 64 4.6 E 20 30 11 16 1024.5 1024.5 0.0
23/10:30am 25.2 23.8 17.1 60 5.0 ESE 20 28 11 15 1025.0 1025.0 0.0
23/10:00am 25.0 24.3 18.2 66 4.3 ESE 19 24 10 13 1025.2 1025.2 0.0
23/09:30am 25.0 24.6 18.9 69 3.9 E 19 28 10 15 1025.2 1025.2 0.0
23/09:00am 24.1 23.4 18.3 70 3.6 E 19 28 10 15 1025.2 1025.2 0.4
23/08:30am 24.3 24.1 19.4 74 3.1 E 19 26 10 14 1025.0 1025.0 0.4
23/08:00am 23.9 23.4 17.9 69 3.7 E 17 26 9 14 1024.9 1024.9 0.4
23/07:30am 23.6 23.4 17.6 69 3.7 E 15 22 8 12 1024.8 1024.8 0.4
23/07:00am 22.3 22.3 17.2 73 3.1 ESE 13 19 7 10 1024.5 1024.5 0.4
23/06:30am 21.4 21.9 16.6 74 2.9 E 9 15 5 8 1024.3 1024.3 0.4

Other formats

Comma delimited format used in spreadsheet applications
http://www.bom.gov.au/fwo/IDN60801/IDN60801.94596.axf

JavaScript Object Notation format (JSON) in row-major order
http://www.bom.gov.au/fwo/IDN60801/IDN60801.94596.json

Data quality

Most of these data are generated automatically and are frequently updated. Quality checks on data are not normally performed. It is possible for incorrect values to appear. Refer to information at About Latest Weather Observations and please check the disclaimer before using these data.